Terminal Aerodrome Forecast
Issued by NWS Wilmington, OH

Current Version | Previous Version | Text Only | Print | Product List | Glossary Off
Versions: 1 2 3 4 5 6 7 8 9 10 11 12 13 14 15 16 17

908
FTUS41 KILN 241032 AAC
TAFILN
TAF AMD
KILN 241032Z 2411/2506 25005KT P6SM SKC
      TEMPO 2411/2412 3SM BR
     FM241300 28009KT P6SM SKC
     FM241600 28013G20KT P6SM SCT040
      TEMPO 2416/2420 BKN040
     FM250200 27005KT P6SM FEW040=

USA.gov is the U.S. government's official web portal to all federal, state and local government web resources and services.